Time;durP1;ratioP1;P1;durP2;ratioP2;P2;SDS_P1;SDS_P2;PMS_P1;PMS_P2;Temp;Humidity;BMP_temperature;BMP_pressure;BME280_temperature;BME280_humidity;BME280_pressure;Samples;Min_cycle;Max_cycle;Signal;HPM_P1;HPM_P2
2023/02/26 06:45:49;;;;;;;1.80;1.70;;;-0.70;98.20;;;;;;1483473;26;20548;-72
2023/02/26 06:48:17;;;;;;;1.80;1.70;;;-0.70;98.20;;;;;;5046228;28;20478;-72
2023/02/26 06:50:44;;;;;;;1.70;1.60;;;-0.70;98.20;;;;;;5047298;28;20557;-74
2023/02/26 06:53:11;;;;;;;1.90;1.80;;;-0.70;98.20;;;;;;5048193;28;20461;-74
2023/02/26 06:55:44;;;;;;;1.80;1.70;;;-0.70;98.20;;;;;;5044324;28;20493;-75
2023/02/26 06:58:11;;;;;;;1.90;1.80;;;-0.70;98.20;;;;;;5045658;28;20575;-75
2023/02/26 07:00:40;;;;;;;1.80;1.70;;;-0.60;98.20;;;;;;5043504;28;20469;-74
2023/02/26 07:06:33;;;;;;;1.80;1.70;;;-0.50;98.20;;;;;;5017718;23;20492;-74
2023/02/26 07:09:00;;;;;;;1.80;1.70;;;-0.40;98.20;;;;;;5059498;22;20524;-74
2023/02/26 07:11:27;;;;;;;1.80;1.70;;;-0.30;98.20;;;;;;5066918;28;20456;-74
2023/02/26 07:13:54;;;;;;;1.80;1.70;;;-0.20;98.20;;;;;;5065869;28;20509;-75
2023/02/26 07:16:20;;;;;;;1.80;1.70;;;-0.10;98.20;;;;;;5069604;28;20461;-73
2023/02/26 07:18:49;;;;;;;1.70;1.60;;;0.00;98.20;;;;;;5063523;28;20504;-75
2023/02/26 07:21:15;;;;;;;1.80;1.70;;;0.10;98.20;;;;;;5066245;28;20462;-73
2023/02/26 07:23:43;;;;;;;1.80;1.70;;;0.20;98.20;;;;;;5063386;28;20849;-78
2023/02/26 07:26:09;;;;;;;1.80;1.70;;;0.30;98.20;;;;;;5063140;28;20460;-73
2023/02/26 07:28:36;;;;;;;1.77;1.67;;;0.40;98.20;;;;;;5064785;28;20473;-74
2023/02/26 07:31:03;;;;;;;1.80;1.70;;;0.50;98.20;;;;;;5065157;28;20463;-73
2023/02/26 07:33:30;;;;;;;1.80;1.70;;;0.70;98.20;;;;;;5059726;28;20461;-75
2023/02/26 07:35:59;;;;;;;1.70;1.60;;;0.80;98.20;;;;;;5065157;28;20466;-77
2023/02/26 07:38:26;;;;;;;1.70;1.60;;;0.90;98.20;;;;;;5064867;28;20977;-74
2023/02/26 07:40:55;;;;;;;1.70;1.60;;;1.00;98.20;;;;;;5064800;28;20466;-73
2023/02/26 07:43:22;;;;;;;1.80;1.70;;;1.10;98.20;;;;;;5066842;28;20457;-73
2023/02/26 07:45:49;;;;;;;1.93;1.83;;;1.20;98.20;;;;;;5066930;28;20461;-72
2023/02/26 07:48:16;;;;;;;1.70;1.60;;;1.20;98.20;;;;;;5064792;28;20485;-74
2023/02/26 07:50:44;;;;;;;1.70;1.60;;;1.30;98.20;;;;;;5065693;28;20468;-75
2023/02/26 07:53:12;;;;;;;1.80;1.70;;;1.40;98.20;;;;;;5063398;28;20511;-74
2023/02/26 07:55:39;;;;;;;1.70;1.60;;;1.50;98.20;;;;;;5079682;28;20499;-74
2023/02/26 07:58:06;;;;;;;1.70;1.60;;;1.50;98.20;;;;;;5077406;28;20506;-74
2023/02/26 08:00:33;;;;;;;1.70;1.60;;;1.40;98.20;;;;;;5064952;28;20464;-74
2023/02/26 08:02:59;;;;;;;1.70;1.60;;;1.50;98.20;;;;;;5086409;22;20484;-73
2023/02/26 08:05:26;;;;;;;1.60;1.47;;;1.60;98.20;;;;;;5066345;28;20478;-72
2023/02/26 08:07:53;;;;;;;1.60;1.50;;;1.70;98.20;;;;;;5070330;28;20461;-72
2023/02/26 08:10:21;;;;;;;1.80;1.70;;;1.80;98.20;;;;;;5072277;28;20457;-72
2023/02/26 08:12:48;;;;;;;1.70;1.60;;;1.80;98.20;;;;;;5076521;28;20456;-73
2023/02/26 08:15:14;;;;;;;1.70;1.60;;;1.90;98.20;;;;;;5067124;28;20481;-73
2023/02/26 08:17:41;;;;;;;1.67;1.50;;;2.00;98.20;;;;;;5066997;28;20458;-73
2023/02/26 08:20:10;;;;;;;1.70;1.50;;;2.10;98.20;;;;;;5067610;28;20849;-73
2023/02/26 08:22:37;;;;;;;1.70;1.57;;;2.20;98.20;;;;;;5080905;28;20460;-73
2023/02/26 08:25:05;;;;;;;1.70;1.60;;;2.30;98.20;;;;;;5071200;28;21382;-73
2023/02/26 08:27:33;;;;;;;1.63;1.50;;;2.40;98.20;;;;;;5077333;28;20456;-74
2023/02/26 08:30:00;;;;;;;1.60;1.50;;;2.60;98.20;;;;;;5065140;28;20965;-74
2023/02/26 08:32:27;;;;;;;1.67;1.50;;;2.80;98.20;;;;;;5082875;28;20467;-73
2023/02/26 08:34:54;;;;;;;1.67;1.50;;;2.90;98.20;;;;;;5076336;28;20673;-74
2023/02/26 08:37:23;;;;;;;1.60;1.50;;;3.00;98.20;;;;;;5074831;28;20467;-73
2023/02/26 08:39:49;;;;;;;1.70;1.60;;;3.20;98.20;;;;;;5080529;28;20457;-74
2023/02/26 08:42:19;;;;;;;1.60;1.40;;;3.40;98.20;;;;;;5070306;28;20453;-74
2023/02/26 08:44:47;;;;;;;1.63;1.40;;;3.60;98.20;;;;;;5069862;28;20473;-75
2023/02/26 08:47:14;;;;;;;1.70;1.50;;;3.80;98.20;;;;;;5065297;28;20823;-74
2023/02/26 08:49:41;;;;;;;1.70;1.50;;;3.80;98.00;;;;;;5084163;28;20452;-73
2023/02/26 08:52:08;;;;;;;1.67;1.40;;;3.90;98.20;;;;;;5087063;28;20492;-74
2023/02/26 08:54:34;;;;;;;1.67;1.50;;;3.90;98.00;;;;;;5067298;28;20490;-74
2023/02/26 08:57:02;;;;;;;1.67;1.40;;;3.90;97.80;;;;;;5082441;28;20458;-73
2023/02/26 08:59:29;;;;;;;1.63;1.40;;;4.00;97.30;;;;;;5081776;28;20456;-74
2023/02/26 09:01:57;;;;;;;1.67;1.40;;;4.00;97.50;;;;;;5087329;28;20468;-74
2023/02/26 09:04:25;;;;;;;1.70;1.40;;;4.10;97.20;;;;;;5081938;28;20805;-74
2023/02/26 09:06:52;;;;;;;1.60;1.40;;;4.20;96.90;;;;;;5077829;28;21016;-74
2023/02/26 09:09:19;;;;;;;1.60;1.30;;;4.30;96.70;;;;;;5071518;28;20465;-74
2023/02/26 09:11:46;;;;;;;1.60;1.30;;;4.40;96.20;;;;;;5074098;28;20462;-74
2023/02/26 09:14:13;;;;;;;1.60;1.40;;;4.40;95.40;;;;;;5088435;28;20861;-74
2023/02/26 09:16:40;;;;;;;1.60;1.30;;;4.40;95.40;;;;;;5083030;28;20519;-74
2023/02/26 09:19:08;;;;;;;1.70;1.40;;;4.40;95.10;;;;;;5076025;28;20465;-77
2023/02/26 09:21:35;;;;;;;1.70;1.50;;;4.50;94.80;;;;;;5088961;28;20484;-76
2023/02/26 09:24:02;;;;;;;1.67;1.40;;;4.40;94.00;;;;;;5077496;28;20473;-76
2023/02/26 09:26:29;;;;;;;1.70;1.40;;;4.40;95.00;;;;;;5081478;28;20552;-74
2023/02/26 09:28:55;;;;;;;1.60;1.40;;;4.40;94.30;;;;;;5076421;28;20914;-75
2023/02/26 09:31:22;;;;;;;1.60;1.30;;;4.50;94.50;;;;;;5084057;28;20591;-75
2023/02/26 09:33:49;;;;;;;1.60;1.30;;;4.40;93.10;;;;;;5071654;28;20484;-76
2023/02/26 09:36:19;;;;;;;1.70;1.50;;;4.30;94.40;;;;;;5073988;28;20858;-74
2023/02/26 09:38:46;;;;;;;1.70;1.40;;;4.40;93.80;;;;;;5067772;28;20458;-75
2023/02/26 09:41:19;;;;;;;1.70;1.40;;;4.50;92.80;;;;;;5074210;28;20460;-75
2023/02/26 09:44:07;;;;;;;1.60;1.37;;;4.60;93.70;;;;;;5073189;28;20482;-74
2023/02/26 09:46:44;;;;;;;1.67;1.40;;;4.80;92.70;;;;;;5072119;28;20450;-75
2023/02/26 09:49:21;;;;;;;1.60;1.30;;;4.90;91.70;;;;;;5054707;28;20468;-74
2023/02/26 09:51:54;;;;;;;1.70;1.47;;;5.00;91.00;;;;;;5065966;28;20461;-75
2023/02/26 09:54:25;;;;;;;1.60;1.47;;;5.10;91.00;;;;;;5066237;28;20484;-75
2023/02/26 09:56:54;;;;;;;1.60;1.30;;;5.20;90.10;;;;;;5065243;28;20470;-75
2023/02/26 09:59:21;;;;;;;1.60;1.30;;;5.50;89.90;;;;;;5065660;28;20469;-75
2023/02/26 10:01:55;;;;;;;1.60;1.30;;;5.60;88.50;;;;;;5072159;28;20470;-75
2023/02/26 10:04:31;;;;;;;1.60;1.30;;;5.60;87.80;;;;;;5066211;28;20875;-75
2023/02/26 10:07:19;;;;;;;1.60;1.40;;;5.80;87.90;;;;;;5064946;28;20470;-74
2023/02/26 10:09:58;;;;;;;1.63;1.30;;;5.80;86.70;;;;;;5062401;28;20466;-75
2023/02/26 10:12:27;;;;;;;1.60;1.30;;;5.80;86.40;;;;;;5071290;28;20464;-75
2023/02/26 10:14:59;;;;;;;1.60;1.30;;;6.00;86.90;;;;;;5067127;28;20564;-74
2023/02/26 10:17:33;;;;;;;1.63;1.30;;;6.10;85.70;;;;;;5066166;28;20558;-75
2023/02/26 10:20:05;;;;;;;1.60;1.30;;;6.00;84.10;;;;;;5065428;28;20468;-74
2023/02/26 10:22:40;;;;;;;1.70;1.40;;;5.90;84.00;;;;;;5073278;28;20483;-74
2023/02/26 10:25:12;;;;;;;1.67;1.40;;;5.80;83.90;;;;;;5062583;28;20487;-74
2023/02/26 10:27:48;;;;;;;1.60;1.30;;;5.60;84.80;;;;;;5056940;28;20453;-74
2023/02/26 10:30:23;;;;;;;1.60;1.30;;;5.30;85.10;;;;;;5069098;28;20997;-74
2023/02/26 10:32:57;;;;;;;1.60;1.20;;;5.20;84.50;;;;;;5062677;28;21028;-74
2023/02/26 10:35:27;;;;;;;1.60;1.30;;;5.00;85.50;;;;;;5058933;28;20477;-74
2023/02/26 10:37:58;;;;;;;1.60;1.30;;;4.80;86.30;;;;;;5063672;28;20461;-74
2023/02/26 10:40:30;;;;;;;1.60;1.37;;;4.60;85.70;;;;;;5061818;28;20476;-74
2023/02/26 10:43:03;;;;;;;2.17;1.97;;;4.50;86.30;;;;;;5062495;28;20464;-75
2023/02/26 10:45:47;;;;;;;1.60;1.40;;;4.60;86.80;;;;;;5062258;28;20962;-74
2023/02/26 10:48:39;;;;;;;1.60;1.40;;;4.50;86.00;;;;;;5060448;28;20461;-74
2023/02/26 10:51:12;;;;;;;1.60;1.30;;;4.80;85.80;;;;;;5060139;28;21186;-74
2023/02/26 10:53:43;;;;;;;1.60;1.30;;;4.90;84.80;;;;;;5062183;28;20489;-72
2023/02/26 10:56:15;;;;;;;1.60;1.40;;;4.90;85.50;;;;;;5063431;28;20484;-72
2023/02/26 10:58:42;;;;;;;1.60;1.30;;;5.10;85.90;;;;;;5064314;28;20457;-72
2023/02/26 11:01:16;;;;;;;1.60;1.30;;;5.60;85.40;;;;;;5063706;28;20461;-72
2023/02/26 11:03:46;;;;;;;1.60;1.30;;;6.10;84.00;;;;;;5064541;28;20492;-72
2023/02/26 11:06:19;;;;;;;1.60;1.30;;;6.40;82.90;;;;;;5058811;28;20954;-72
2023/02/26 11:08:51;;;;;;;1.60;1.20;;;6.80;83.60;;;;;;5060870;28;20941;-72
2023/02/26 11:11:36;;;;;;;1.60;1.20;;;7.20;80.70;;;;;;5063404;28;20462;-72
2023/02/26 11:14:03;;;;;;;1.60;1.27;;;7.30;77.40;;;;;;5061986;28;20590;-71
2023/02/26 11:16:30;;;;;;;1.60;1.30;;;7.50;77.70;;;;;;5063576;28;20486;-72
2023/02/26 11:19:00;;;;;;;1.60;1.20;;;7.30;76.40;;;;;;5063294;28;20469;-72
2023/02/26 11:21:30;;;;;;;1.60;1.20;;;7.20;77.60;;;;;;5063788;28;20976;-71
2023/02/26 11:24:29;;;;;;;1.60;1.20;;;7.10;78.30;;;;;;5061676;28;20496;-71
2023/02/26 11:27:01;;;;;;;1.60;1.30;;;6.90;77.40;;;;;;5061842;28;20462;-72
2023/02/26 11:29:32;;;;;;;1.60;1.30;;;6.70;78.70;;;;;;5065813;28;20927;-72
2023/02/26 11:32:01;;;;;;;1.60;1.30;;;6.40;79.40;;;;;;5063040;28;20953;-72
2023/02/26 11:34:30;;;;;;;1.60;1.30;;;6.20;80.60;;;;;;5067034;28;20481;-75
2023/02/26 11:39:49;;;;;;;1.60;1.40;;;5.80;80.50;;;;;;5066495;28;20469;-75
2023/02/26 11:42:17;;;;;;;1.60;1.30;;;5.70;81.10;;;;;;5068239;28;20466;-77
2023/02/26 11:44:47;;;;;;;1.60;1.27;;;5.60;82.00;;;;;;5062736;28;20530;-73
2023/02/26 11:47:16;;;;;;;1.60;1.40;;;5.80;82.70;;;;;;5059100;28;20454;-74
2023/02/26 11:49:46;;;;;;;1.60;1.37;;;5.80;82.00;;;;;;5065271;28;21180;-73
2023/02/26 11:52:20;;;;;;;1.57;1.30;;;5.70;80.20;;;;;;5062416;28;20504;-74
2023/02/26 11:54:51;;;;;;;1.60;1.30;;;5.80;80.90;;;;;;5059525;28;20481;-74
2023/02/26 11:57:20;;;;;;;1.60;1.30;;;6.10;82.20;;;;;;5059774;28;20485;-72
2023/02/26 11:59:49;;;;;;;1.60;1.30;;;6.30;79.80;;;;;;5062789;28;20472;-73
2023/02/26 12:02:20;;;;;;;1.60;1.30;;;6.30;78.80;;;;;;5059965;28;20514;-74
2023/02/26 12:04:52;;;;;;;1.60;1.30;;;6.10;78.30;;;;;;5062504;28;20816;-74
2023/02/26 12:07:20;;;;;;;1.60;1.20;;;6.00;78.90;;;;;;5063694;28;20480;-73
2023/02/26 12:09:49;;;;;;;1.60;1.50;;;6.00;78.50;;;;;;5059609;28;20878;-72
2023/02/26 12:12:40;;;;;;;1.60;1.30;;;5.90;77.40;;;;;;5061369;28;21318;-74
2023/02/26 12:15:28;;;;;;;1.57;1.20;;;5.80;78.20;;;;;;5058290;28;21045;-73
2023/02/26 12:18:35;;;;;;;1.60;1.43;;;5.80;78.10;;;;;;5059127;28;20484;-75
2023/02/26 12:21:17;;;;;;;1.60;1.43;;;6.00;76.90;;;;;;5017284;28;20463;-73
2023/02/26 12:24:14;;;;;;;1.60;1.40;;;5.90;75.90;;;;;;5057196;28;20567;-73
2023/02/26 12:26:51;;;;;;;1.57;1.30;;;5.80;76.50;;;;;;5044935;28;20464;-73
2023/02/26 12:29:34;;;;;;;1.53;1.30;;;5.70;77.20;;;;;;5057988;28;20465;-73
2023/02/26 12:32:22;;;;;;;1.60;1.40;;;5.90;77.30;;;;;;5054076;28;20836;-72
2023/02/26 12:35:15;;;;;;;1.60;1.30;;;6.20;76.60;;;;;;5044156;28;20516;-73
2023/02/26 12:37:51;;;;;;;1.50;1.30;;;6.20;75.20;;;;;;5058811;28;20465;-73
2023/02/26 12:40:41;;;;;;;1.57;1.30;;;6.30;76.10;;;;;;5059779;28;20475;-73
2023/02/26 12:43:14;;;;;;;1.50;1.20;;;6.50;75.10;;;;;;5057282;28;20492;-73
2023/02/26 12:45:52;;;;;;;1.53;1.20;;;6.80;74.90;;;;;;5053250;28;20462;-73
2023/02/26 12:48:45;;;;;;;1.60;1.20;;;6.90;73.60;;;;;;5058661;28;20465;-74
2023/02/26 12:51:22;;;;;;;1.60;1.30;;;7.20;74.00;;;;;;5059598;28;21323;-75
2023/02/26 12:54:16;;;;;;;1.57;1.20;;;7.30;73.20;;;;;;5058098;28;20477;-73
2023/02/26 12:57:05;;;;;;;1.60;1.50;;;7.20;73.00;;;;;;5055733;28;20485;-73
2023/02/26 12:59:48;;;;;;;1.60;1.27;;;7.20;72.70;;;;;;5060156;28;20465;-73
2023/02/26 13:02:41;;;;;;;1.60;1.30;;;7.30;72.50;;;;;;5062318;28;20807;-74
2023/02/26 13:05:19;;;;;;;1.60;1.20;;;7.20;72.00;;;;;;5059380;28;20871;-73
2023/02/26 13:08:01;;;;;;;1.60;1.30;;;7.30;73.10;;;;;;5055254;28;20462;-73
2023/02/26 13:10:40;;;;;;;1.60;1.30;;;7.40;72.80;;;;;;5060666;28;20940;-73
2023/02/26 13:13:21;;;;;;;1.60;1.30;;;7.40;73.90;;;;;;5058469;28;20510;-74
2023/02/26 13:16:04;;;;;;;1.60;1.20;;;7.40;73.30;;;;;;5059304;28;20496;-74
2023/02/26 13:18:39;;;;;;;1.60;1.23;;;7.30;72.40;;;;;;5056139;28;20503;-73
2023/02/26 13:21:12;;;;;;;1.53;1.23;;;7.20;72.90;;;;;;5060848;28;20468;-73
2023/02/26 13:23:48;;;;;;;1.57;1.20;;;7.10;73.30;;;;;;5064766;28;20477;-73
2023/02/26 13:26:16;;;;;;;1.57;1.20;;;7.20;74.10;;;;;;5059610;28;20894;-73
2023/02/26 13:28:47;;;;;;;1.57;1.27;;;7.30;74.40;;;;;;5058133;28;20484;-73
2023/02/26 13:31:20;;;;;;;1.60;1.20;;;7.30;74.10;;;;;;5061204;28;20464;-72
2023/02/26 13:33:50;;;;;;;1.60;1.20;;;7.30;73.00;;;;;;5062477;28;20491;-72
2023/02/26 13:36:19;;;;;;;1.57;1.20;;;7.20;73.80;;;;;;5060767;28;20488;-73
2023/02/26 13:39:03;;;;;;;1.57;1.20;;;7.10;72.70;;;;;;5063024;28;20787;-73
2023/02/26 13:41:38;;;;;;;1.53;1.20;;;7.20;73.70;;;;;;5061362;28;20977;-75
2023/02/26 13:44:21;;;;;;;1.60;1.33;;;7.20;74.50;;;;;;5063313;28;20491;-73
2023/02/26 13:47:27;;;;;;;1.57;1.20;;;7.20;74.70;;;;;;5055496;28;21004;-74
2023/02/26 13:50:05;;;;;;;1.57;1.20;;;7.20;75.50;;;;;;5062533;28;20807;-73
2023/02/26 13:52:34;;;;;;;1.53;1.10;;;7.20;74.00;;;;;;5063970;28;20457;-74
2023/02/26 13:55:03;;;;;;;1.57;1.20;;;7.00;74.70;;;;;;5063065;28;20485;-73
2023/02/26 13:57:47;;;;;;;1.57;1.23;;;7.00;74.70;;;;;;5058160;28;20500;-73
2023/02/26 14:00:27;;;;;;;1.60;1.20;;;7.00;74.50;;;;;;5064546;28;20844;-73
2023/02/26 14:02:57;;;;;;;1.50;1.20;;;6.90;73.90;;;;;;5063318;28;20461;-73
2023/02/26 14:05:59;;;;;;;1.57;1.23;;;7.00;74.00;;;;;;5063799;28;21183;-73
2023/02/26 14:08:44;;;;;;;1.50;1.20;;;7.00;74.00;;;;;;5062146;28;20476;-73
2023/02/26 14:11:42;;;;;;;1.50;1.20;;;6.70;73.70;;;;;;5063128;28;20876;-74
2023/02/26 14:14:31;;;;;;;1.57;1.30;;;6.60;75.20;;;;;;5063859;28;20562;-72
2023/02/26 14:17:30;;;;;;;1.60;1.30;;;6.60;75.10;;;;;;5059087;28;20485;-72
2023/02/26 14:20:29;;;;;;;1.53;1.30;;;6.50;73.30;;;;;;5057412;28;20978;-72
2023/02/26 14:23:32;;;;;;;1.53;1.20;;;6.60;75.30;;;;;;4990119;28;20469;-73
2023/02/26 14:26:10;;;;;;;1.53;1.20;;;6.50;73.50;;;;;;5062528;28;20461;-74
2023/02/26 14:28:54;;;;;;;1.50;1.20;;;6.50;75.10;;;;;;5063755;28;20476;-74
2023/02/26 14:31:24;;;;;;;1.57;1.30;;;6.50;76.30;;;;;;5062507;28;20466;-73
2023/02/26 14:34:04;;;;;;;1.53;1.20;;;6.60;76.50;;;;;;5063344;28;20882;-75
2023/02/26 14:36:37;;;;;;;1.53;1.30;;;6.60;76.40;;;;;;5060194;28;20481;-73
2023/02/26 14:39:09;;;;;;;1.53;1.20;;;6.50;75.40;;;;;;5064642;28;20465;-73
2023/02/26 14:41:40;;;;;;;1.53;1.20;;;6.40;75.10;;;;;;5065955;28;20519;-73
2023/02/26 14:44:14;;;;;;;1.60;1.30;;;6.30;75.50;;;;;;5062767;28;21378;-73
2023/02/26 14:46:42;;;;;;;1.60;1.30;;;6.10;75.70;;;;;;5057894;28;20449;-73
2023/02/26 14:49:15;;;;;;;1.50;1.20;;;6.00;75.60;;;;;;5061158;28;20468;-73
2023/02/26 14:51:53;;;;;;;1.50;1.30;;;6.00;75.90;;;;;;5061002;28;20850;-73
2023/02/26 14:54:30;;;;;;;1.60;1.40;;;6.10;76.50;;;;;;5052250;28;20481;-73
2023/02/26 14:57:03;;;;;;;1.57;1.30;;;6.10;75.60;;;;;;5054084;28;20698;-74
2023/02/26 14:59:53;;;;;;;1.60;1.40;;;6.10;74.70;;;;;;5055184;28;20496;-74
2023/02/26 15:02:28;;;;;;;1.53;1.20;;;5.90;75.10;;;;;;5058901;28;20493;-73
2023/02/26 15:05:16;;;;;;;1.50;1.20;;;6.00;76.90;;;;;;5060102;28;20491;-73
2023/02/26 15:08:03;;;;;;;1.57;1.40;;;6.00;75.80;;;;;;5060757;28;20473;-73
2023/02/26 15:10:45;;;;;;;1.57;1.20;;;5.80;74.70;;;;;;5061015;28;20883;-74
2023/02/26 15:13:27;;;;;;;1.60;1.40;;;5.70;74.80;;;;;;5061605;28;20476;-72
2023/02/26 15:15:57;;;;;;;1.53;1.30;;;5.70;75.70;;;;;;5059089;28;20457;-72
2023/02/26 15:18:43;;;;;;;1.60;1.33;;;5.60;75.60;;;;;;5056135;28;20510;-72
2023/02/26 15:21:17;;;;;;;1.60;1.30;;;5.50;75.80;;;;;;5062085;28;20457;-71
2023/02/26 15:23:51;;;;;;;1.53;1.20;;;5.40;76.00;;;;;;5059557;28;20484;-73
2023/02/26 15:26:22;;;;;;;1.57;1.30;;;5.50;77.10;;;;;;5059741;28;20466;-74
2023/02/26 15:28:50;;;;;;;1.60;1.30;;;5.40;76.40;;;;;;5061078;28;21029;-76
2023/02/26 15:31:20;;;;;;;1.57;1.30;;;5.40;76.70;;;;;;5060386;28;20461;-75
2023/02/26 15:33:48;;;;;;;1.60;1.40;;;5.30;76.50;;;;;;5062172;28;20492;-72
2023/02/26 15:36:21;;;;;;;1.60;1.30;;;5.20;77.20;;;;;;5061855;28;21237;-73
2023/02/26 15:38:54;;;;;;;1.60;1.40;;;5.10;77.60;;;;;;5061376;28;20561;-72
2023/02/26 15:41:22;;;;;;;1.57;1.30;;;5.10;76.80;;;;;;5063046;28;20480;-73
2023/02/26 15:43:52;;;;;;;1.60;1.40;;;5.00;77.70;;;;;;5055505;28;20481;-73
2023/02/26 15:46:29;;;;;;;1.60;1.40;;;5.00;76.70;;;;;;5058116;28;20500;-73
2023/02/26 15:49:01;;;;;;;1.60;1.30;;;4.90;76.80;;;;;;5062648;28;20876;-73
2023/02/26 15:51:28;;;;;;;1.57;1.40;;;4.90;78.50;;;;;;5060532;28;20533;-77
2023/02/26 15:54:01;;;;;;;1.57;1.30;;;4.90;78.80;;;;;;5060755;28;20477;-72
2023/02/26 15:56:30;;;;;;;1.60;1.40;;;4.80;78.30;;;;;;5059743;28;21195;-72
2023/02/26 15:59:01;;;;;;;1.60;1.40;;;4.80;78.60;;;;;;5060607;28;20469;-73
2023/02/26 16:01:33;;;;;;;1.83;1.73;;;4.80;78.90;;;;;;5062780;28;20981;-73
2023/02/26 16:04:02;;;;;;;4.17;3.87;;;4.80;78.80;;;;;;5061488;28;20872;-72
2023/02/26 16:06:31;;;;;;;1.57;1.30;;;4.80;79.00;;;;;;5061182;28;20465;-72
2023/02/26 16:09:00;;;;;;;1.60;1.30;;;4.70;79.00;;;;;;5059417;28;20469;-73
2023/02/26 16:11:31;;;;;;;1.60;1.40;;;4.70;78.60;;;;;;5063561;28;20462;-72
2023/02/26 16:14:00;;;;;;;1.57;1.30;;;4.70;78.50;;;;;;5060808;28;20482;-72
2023/02/26 16:16:29;;;;;;;1.60;1.40;;;4.60;78.10;;;;;;5060343;28;20674;-73
2023/02/26 16:18:57;;;;;;;1.60;1.30;;;4.60;79.70;;;;;;5059374;28;20552;-72
2023/02/26 16:21:31;;;;;;;1.60;1.40;;;4.60;79.30;;;;;;5059905;28;20756;-73
2023/02/26 16:24:01;;;;;;;1.60;1.40;;;4.50;79.40;;;;;;5060843;28;20509;-72
2023/02/26 16:26:31;;;;;;;1.57;1.37;;;4.50;79.90;;;;;;5057978;28;20457;-72
2023/02/26 16:29:02;;;;;;;1.60;1.40;;;4.40;79.50;;;;;;5065787;28;20465;-73
2023/02/26 16:31:35;;;;;;;1.60;1.30;;;4.40;79.80;;;;;;5063582;28;20462;-72
2023/02/26 16:34:05;;;;;;;1.50;1.30;;;4.30;80.00;;;;;;5058898;28;20568;-72
2023/02/26 16:36:36;;;;;;;1.60;1.50;;;4.30;80.50;;;;;;5056848;28;20946;-72
2023/02/26 16:39:16;;;;;;;1.60;1.40;;;4.30;80.90;;;;;;5062231;28;20464;-72
2023/02/26 16:41:48;;;;;;;1.53;1.30;;;4.20;81.00;;;;;;5060362;28;20457;-73
2023/02/26 16:44:45;;;;;;;1.57;1.30;;;4.20;81.30;;;;;;5055946;28;20489;-73
2023/02/26 16:47:12;;;;;;;1.60;1.40;;;4.20;81.30;;;;;;5060388;28;20461;-74
2023/02/26 16:49:41;;;;;;;1.60;1.40;;;4.20;82.00;;;;;;5061537;28;20461;-75
2023/02/26 16:52:14;;;;;;;1.60;1.40;;;4.10;82.50;;;;;;5059133;28;20754;-72
2023/02/26 16:54:46;;;;;;;1.57;1.40;;;4.10;82.50;;;;;;5058787;28;20504;-74
2023/02/26 16:57:17;;;;;;;1.60;1.50;;;4.00;83.30;;;;;;5058713;28;20790;-73
2023/02/26 16:59:52;;;;;;;1.70;1.60;;;4.00;83.30;;;;;;5061063;28;20484;-72
2023/02/26 17:02:22;;;;;;;1.60;1.40;;;3.90;82.50;;;;;;5058580;28;20468;-73
2023/02/26 17:04:52;;;;;;;1.60;1.37;;;3.80;81.80;;;;;;5064601;28;20489;-72
2023/02/26 17:07:25;;;;;;;1.60;1.50;;;3.80;82.70;;;;;;5063289;28;20559;-73
2023/02/26 17:09:57;;;;;;;1.57;1.30;;;3.80;82.50;;;;;;5065685;28;20813;-72
2023/02/26 17:12:30;;;;;;;1.60;1.40;;;3.70;82.70;;;;;;5062732;28;20887;-72
2023/02/26 17:15:00;;;;;;;1.57;1.40;;;3.70;83.30;;;;;;5062379;28;20492;-72
2023/02/26 17:17:27;;;;;;;3.13;2.93;;;3.70;83.20;;;;;;5059698;28;20870;-72
2023/02/26 17:19:54;;;;;;;1.60;1.40;;;3.60;83.60;;;;;;5063856;28;20468;-72
2023/02/26 17:22:27;;;;;;;1.60;1.40;;;3.60;83.80;;;;;;5064219;28;20476;-73
2023/02/26 17:24:55;;;;;;;1.60;1.40;;;3.50;83.40;;;;;;5065638;28;20547;-73
2023/02/26 17:27:27;;;;;;;1.60;1.50;;;3.50;84.10;;;;;;5062141;28;20984;-72
2023/02/26 17:29:54;;;;;;;1.60;1.40;;;3.40;84.80;;;;;;5063492;28;20462;-72
2023/02/26 17:32:22;;;;;;;1.60;1.40;;;3.40;84.90;;;;;;5062434;28;20461;-72
2023/02/26 17:34:50;;;;;;;1.60;1.40;;;3.40;84.40;;;;;;5061860;28;20941;-72
2023/02/26 17:37:17;;;;;;;1.60;1.47;;;3.40;85.40;;;;;;5061736;28;20495;-72
2023/02/26 17:39:45;;;;;;;1.60;1.40;;;3.40;85.40;;;;;;5063046;28;20461;-72
2023/02/26 17:42:15;;;;;;;1.60;1.40;;;3.30;86.50;;;;;;5064767;28;20464;-72
2023/02/26 17:44:43;;;;;;;1.60;1.40;;;3.30;86.30;;;;;;5059852;28;21001;-71
2023/02/26 17:47:15;;;;;;;1.60;1.40;;;3.20;86.10;;;;;;5061699;28;20958;-71
2023/02/26 17:49:42;;;;;;;1.60;1.50;;;3.20;86.10;;;;;;5062252;28;20674;-72
2023/02/26 17:52:09;;;;;;;1.60;1.40;;;3.10;87.20;;;;;;5062388;28;20561;-71
2023/02/26 17:54:36;;;;;;;1.60;1.40;;;3.10;87.70;;;;;;5063893;28;20488;-71
2023/02/26 17:57:04;;;;;;;1.60;1.50;;;3.10;87.80;;;;;;5059672;28;20461;-71
2023/02/26 17:59:32;;;;;;;1.60;1.50;;;3.00;88.00;;;;;;5065359;28;21004;-71
2023/02/26 18:01:59;;;;;;;1.60;1.47;;;3.00;88.40;;;;;;5061382;28;20480;-71
2023/02/26 18:04:28;;;;;;;1.60;1.50;;;2.90;88.50;;;;;;5062145;28;20489;-71
2023/02/26 18:06:55;;;;;;;1.60;1.43;;;2.90;88.60;;;;;;5063119;28;20464;-71
2023/02/26 18:09:22;;;;;;;1.60;1.40;;;2.90;88.90;;;;;;5064984;28;20465;-72
2023/02/26 18:11:49;;;;;;;1.60;1.40;;;2.90;89.00;;;;;;5064698;28;20520;-71
2023/02/26 18:14:15;;;;;;;1.60;1.47;;;2.80;89.10;;;;;;5061848;28;20489;-71
2023/02/26 18:16:45;;;;;;;1.60;1.40;;;2.80;89.50;;;;;;5059978;28;20960;-71
2023/02/26 18:19:14;;;;;;;1.60;1.50;;;2.80;89.70;;;;;;5061674;28;20493;-71
2023/02/26 18:21:42;;;;;;;1.60;1.50;;;2.70;90.00;;;;;;5064340;28;20974;-71
2023/02/26 18:24:10;;;;;;;1.60;1.40;;;2.70;90.10;;;;;;5063859;28;20487;-71
2023/02/26 18:26:37;;;;;;;1.90;1.80;;;2.70;90.30;;;;;;5063180;28;20465;-72
2023/02/26 18:29:04;;;;;;;1.60;1.50;;;2.70;90.40;;;;;;5061955;28;21650;-72
2023/02/26 18:31:33;;;;;;;1.60;1.50;;;2.60;90.50;;;;;;5062713;28;20468;-72
2023/02/26 18:34:01;;;;;;;1.60;1.50;;;2.60;90.80;;;;;;5061865;28;20576;-71
2023/02/26 18:36:36;;;;;;;1.73;1.63;;;2.60;90.60;;;;;;5062295;28;20467;-71
2023/02/26 18:39:04;;;;;;;1.60;1.50;;;2.60;90.60;;;;;;5062332;28;20756;-71
2023/02/26 18:41:32;;;;;;;1.70;1.60;;;2.50;91.10;;;;;;5059615;28;20915;-70
2023/02/26 18:43:59;;;;;;;1.60;1.43;;;2.50;91.30;;;;;;5060467;28;20488;-71
2023/02/26 18:46:28;;;;;;;1.70;1.60;;;2.50;91.40;;;;;;5061470;28;20548;-72
2023/02/26 18:48:55;;;;;;;1.80;1.70;;;2.40;91.40;;;;;;5065763;28;20458;-72
2023/02/26 18:51:24;;;;;;;1.77;1.67;;;2.40;91.70;;;;;;5064710;28;20830;-72
2023/02/26 18:53:51;;;;;;;1.73;1.63;;;2.40;91.70;;;;;;5065863;28;20929;-73
2023/02/26 18:56:18;;;;;;;1.60;1.40;;;2.40;92.50;;;;;;5065871;28;20461;-72
2023/02/26 18:58:45;;;;;;;1.67;1.57;;;2.30;92.50;;;;;;5065274;28;20578;-72
2023/02/26 19:01:12;;;;;;;1.60;1.50;;;2.30;92.80;;;;;;5067613;28;20541;-71
2023/02/26 19:03:39;;;;;;;1.70;1.60;;;2.30;93.20;;;;;;5064464;28;20489;-71
2023/02/26 19:06:08;;;;;;;1.70;1.60;;;2.20;93.50;;;;;;5063057;28;20819;-71
2023/02/26 19:08:37;;;;;;;1.70;1.60;;;2.20;93.10;;;;;;5062448;28;20533;-71
2023/02/26 19:11:04;;;;;;;1.70;1.60;;;2.20;93.40;;;;;;5062750;28;20488;-73
2023/02/26 19:13:31;;;;;;;1.60;1.50;;;2.20;93.60;;;;;;5067027;28;20576;-72
2023/02/26 19:15:58;;;;;;;1.70;1.60;;;2.20;93.50;;;;;;5066964;28;20543;-72
2023/02/26 19:18:25;;;;;;;1.60;1.50;;;2.20;93.50;;;;;;5068222;28;20535;-72
2023/02/26 19:20:52;;;;;;;1.60;1.40;;;2.20;93.70;;;;;;5063428;28;20660;-72
2023/02/26 19:23:20;;;;;;;1.60;1.50;;;2.10;94.00;;;;;;5063738;28;20600;-72
2023/02/26 19:25:51;;;;;;;1.60;1.50;;;2.10;94.20;;;;;;5061730;28;20465;-72
2023/02/26 19:28:18;;;;;;;1.60;1.50;;;2.10;94.20;;;;;;5065358;28;20457;-72
2023/02/26 19:30:45;;;;;;;1.70;1.60;;;2.10;94.30;;;;;;5060836;28;20476;-73
2023/02/26 19:33:12;;;;;;;1.63;1.53;;;2.10;94.30;;;;;;5067527;28;20594;-72
2023/02/26 19:35:39;;;;;;;1.60;1.50;;;2.10;94.20;;;;;;5063501;28;20572;-72
2023/02/26 19:38:06;;;;;;;1.70;1.60;;;2.10;94.30;;;;;;5061035;28;20516;-72
2023/02/26 19:40:33;;;;;;;1.60;1.50;;;2.10;94.40;;;;;;5063415;28;21397;-73
2023/02/26 19:43:01;;;;;;;1.60;1.50;;;2.10;94.60;;;;;;5059505;28;20527;-74
2023/02/26 19:45:28;;;;;;;1.67;1.57;;;2.00;94.20;;;;;;5059494;28;20458;-74
2023/02/26 19:47:55;;;;;;;1.60;1.50;;;2.00;94.40;;;;;;5061074;28;20458;-72
2023/02/26 19:50:24;;;;;;;1.60;1.50;;;2.00;94.60;;;;;;5061535;28;20461;-74
2023/02/26 19:52:51;;;;;;;1.60;1.50;;;2.10;95.00;;;;;;5063101;28;20462;-72
2023/02/26 19:55:18;;;;;;;1.70;1.60;;;2.10;95.20;;;;;;5062048;28;20466;-74
2023/02/26 19:57:45;;;;;;;1.63;1.53;;;2.10;95.20;;;;;;5061651;28;20548;-73
2023/02/26 20:00:15;;;;;;;1.70;1.60;;;2.10;94.90;;;;;;5059745;28;20467;-74
2023/02/26 20:02:42;;;;;;;1.60;1.50;;;2.20;94.80;;;;;;5063483;28;20514;-72
2023/02/26 20:05:14;;;;;;;1.60;1.50;;;2.20;94.60;;;;;;5061403;28;20523;-73
2023/02/26 20:07:41;;;;;;;1.60;1.50;;;2.20;94.30;;;;;;5061385;28;21077;-74
2023/02/26 20:10:10;;;;;;;1.60;1.50;;;2.30;94.30;;;;;;5061872;28;20467;-72
2023/02/26 20:12:37;;;;;;;1.70;1.60;;;2.30;94.60;;;;;;5064498;28;20527;-74
2023/02/26 20:15:05;;;;;;;1.70;1.60;;;2.30;94.20;;;;;;5063767;28;20485;-72